Atena Airport

SDPC · São Paulo, 巴西

使用的METAR站距离机场41 km。
罗盘
风向 的 风向 030° Atena Airport 11/29
风: 8 kt, 3 beaufort

4 kt

7 kt
改变
0 ft 1.000 2.000 3.000 4.000 5.000
CAVOK
METAR SBDN 230700Z 03008KT CAVOK 23/11 Q1013

METAR Atena Airport - SDPC

Atena Airport是,巴西中的小机场。 该机场位于纬度-22,15322和经度-51,02929。 该机场有一条跑道: 11/29. 本场的ICAO机场代码为SDPC。 机场在Curitiba FIR中。

该航空气象观测是针对Presidente Prudente Airport在2024年6月23日 04:00, 当地时间进行的。

机场观察

风向为030°,速度为8 kt。

天气为CAVOK。这意味着在5.000 ft或MSA(最低安全高度)以下(以较高者为准)以下没有云。这也意味着没有观测到积雨云或高耸的积云,可见度为10 km 或者更多或更高。此外,不会有雾,降雨或其他重要天气。

温度和风寒是23 °C。 露点为11 °C,相对湿度为47%。 海平面上的气压为1013 hPa (QNH)。

白天

今天,太阳从07:03升起,在17:49降落。 这适用于Atena Airport,世界夏令时可能有所不同。 当地时间与世界标准时间之间的时差为-3 小时。 夏令时目前正在进行中。

公司介绍

我们没有关于这个机场的公司信息。

体会

到Vliegles.nl去找飞行课程,跳伞和其他飞行体验。 浏览页面,了解Atena Airport附近所有可用的活动。 你也可以使用搜索功能来寻找你所在地附近的特定飞行课程、跳伞或其他飞行体验。

跑道

Id 标题 侧风 逆风 侧风 %
11/29 093°-273° 7 kt 4 kt 89 %

逆风成分最大的方向会被突出显示,并用于横风计算。 这并不一定意味着这个方向在使用。

温度 & 天气

温度 23 °C
露点 11 °C
相对湿度 47%
Kp-index 1 (0-9)

白天

日出
07:04 (2:48)
中午
12:28
日落
17:51

小工具

你想在你的网站上有一个关于Atena Airport的当前航空天气(METAR)的小部件吗?

显示HTML代码
报告变更